createdAt,value
2023-02-02T00:00:30.099Z,8.20
2023-02-02T00:02:57.298Z,8.20
2023-02-02T00:05:24.472Z,8.20
2023-02-02T00:07:51.738Z,8.20
2023-02-02T00:10:18.743Z,8.20
2023-02-02T00:12:45.511Z,8.20
2023-02-02T00:15:12.376Z,8.10
2023-02-02T00:17:39.256Z,8.10
2023-02-02T00:20:06.417Z,8.20
2023-02-02T00:22:33.601Z,8.20
2023-02-02T00:25:00.430Z,8.20
2023-02-02T00:27:27.197Z,8.10
2023-02-02T00:29:54.038Z,8.20
2023-02-02T00:32:20.857Z,8.20
2023-02-02T00:34:47.828Z,8.10
2023-02-02T00:37:14.603Z,8.20
2023-02-02T00:39:41.427Z,8.20
2023-02-02T00:42:10.922Z,8.20
2023-02-02T00:44:56.600Z,8.20
2023-02-02T00:47:23.474Z,8.20
2023-02-02T00:49:50.279Z,8.20
2023-02-02T00:52:17.066Z,8.10
2023-02-02T00:54:43.859Z,8.20
2023-02-02T00:57:13.973Z,8.20
2023-02-02T00:59:41.788Z,8.10
2023-02-02T01:02:12.552Z,8.10
2023-02-02T01:04:39.824Z,8.10
2023-02-02T01:07:06.600Z,8.10
2023-02-02T01:09:36.228Z,8.10
2023-02-02T01:12:02.993Z,8.10
2023-02-02T01:14:29.909Z,8.20
2023-02-02T01:16:59.348Z,8.20
2023-02-02T01:19:26.136Z,8.20
2023-02-02T01:21:52.948Z,8.10
2023-02-02T01:24:19.815Z,8.10
2023-02-02T01:26:46.707Z,8.20
2023-02-02T01:29:13.554Z,8.10
2023-02-02T01:31:40.679Z,8.10
2023-02-02T01:34:07.630Z,8.10
2023-02-02T01:36:35.037Z,8.10
2023-02-02T01:39:01.997Z,8.10
2023-02-02T01:41:29.086Z,8.10
2023-02-02T01:44:01.517Z,8.10
2023-02-02T01:46:33.473Z,8.10
2023-02-02T01:49:03.039Z,8.10
2023-02-02T01:51:35.647Z,8.10
2023-02-02T01:54:04.087Z,8.10
2023-02-02T01:56:35.331Z,8.10
2023-02-02T01:59:03.012Z,8.10
2023-02-02T02:01:29.863Z,8.10
2023-02-02T02:03:57.178Z,8.10
2023-02-02T02:06:26.794Z,8.10
2023-02-02T02:08:57.599Z,8.00
2023-02-02T02:11:24.972Z,8.10
2023-02-02T02:14:11.833Z,8.00
2023-02-02T02:17:00.019Z,8.10
2023-02-02T02:19:26.796Z,8.00
2023-02-02T02:22:27.858Z,8.00
2023-02-02T02:25:36.338Z,8.00
2023-02-02T02:28:31.813Z,8.00
2023-02-02T02:31:10.529Z,8.00
2023-02-02T02:33:47.705Z,8.00
2023-02-02T02:36:20.926Z,8.00
2023-02-02T02:38:53.442Z,8.00
2023-02-02T02:41:23.367Z,8.00
2023-02-02T02:43:58.861Z,8.00
2023-02-02T02:46:25.697Z,8.00
2023-02-02T02:48:52.636Z,8.00
2023-02-02T02:51:41.132Z,8.00
2023-02-02T02:54:07.973Z,8.00
2023-02-02T02:56:56.011Z,8.00
2023-02-02T02:59:33.881Z,8.00
2023-02-02T03:02:05.178Z,7.90
2023-02-02T03:04:55.373Z,7.90
2023-02-02T03:07:26.117Z,7.90
2023-02-02T03:09:54.860Z,7.90
2023-02-02T03:12:21.654Z,7.90
2023-02-02T03:14:48.463Z,7.90
2023-02-02T03:17:15.272Z,7.90
2023-02-02T03:19:42.082Z,7.90
2023-02-02T03:22:08.942Z,7.90
2023-02-02T03:24:35.694Z,7.90
2023-02-02T03:27:02.642Z,8.00
2023-02-02T03:29:32.336Z,7.90
2023-02-02T03:31:59.264Z,7.90
2023-02-02T03:34:26.034Z,7.90
2023-02-02T03:36:53.959Z,7.90
2023-02-02T03:39:23.007Z,7.90
2023-02-02T03:41:49.832Z,7.90
2023-02-02T03:44:16.654Z,7.90
2023-02-02T03:46:43.741Z,7.90
2023-02-02T03:49:10.936Z,7.90
2023-02-02T03:51:37.732Z,7.90
2023-02-02T03:54:04.943Z,7.90
2023-02-02T03:56:31.756Z,7.90
2023-02-02T03:58:58.536Z,7.90
2023-02-02T04:01:29.497Z,7.90
2023-02-02T04:03:57.607Z,7.90
2023-02-02T04:06:25.159Z,7.90
2023-02-02T04:08:52.284Z,7.90
2023-02-02T04:11:21.268Z,7.90
2023-02-02T04:13:48.066Z,7.80
2023-02-02T04:16:15.015Z,7.90
2023-02-02T04:18:41.867Z,7.80
2023-02-02T04:21:09.039Z,7.90
2023-02-02T04:23:36.248Z,7.80
2023-02-02T04:26:03.713Z,7.80
2023-02-02T04:28:30.912Z,7.80
2023-02-02T04:31:01.301Z,7.70
2023-02-02T04:33:28.324Z,7.70
2023-02-02T04:35:55.181Z,7.80
2023-02-02T04:38:22.300Z,7.80
2023-02-02T04:40:49.285Z,7.80
2023-02-02T04:43:16.314Z,7.80
2023-02-02T04:45:43.329Z,7.80
2023-02-02T04:48:10.142Z,7.80
2023-02-02T04:50:39.673Z,7.80
2023-02-02T04:53:06.525Z,7.80
2023-02-02T04:55:37.046Z,7.80
2023-02-02T04:58:04.330Z,7.70
2023-02-02T05:00:31.225Z,7.70
2023-02-02T05:02:57.962Z,7.70
2023-02-02T05:05:25.014Z,7.70
2023-02-02T05:07:52.035Z,7.60
2023-02-02T05:10:18.969Z,7.60
2023-02-02T05:12:48.647Z,7.60
2023-02-02T05:15:15.444Z,7.60
2023-02-02T05:17:48.215Z,7.60
2023-02-02T05:20:15.162Z,7.60
2023-02-02T05:22:42.761Z,7.60
2023-02-02T05:25:10.141Z,7.60
2023-02-02T05:27:36.989Z,7.60
2023-02-02T05:30:04.466Z,7.60
2023-02-02T05:32:31.330Z,7.60
2023-02-02T05:34:58.152Z,7.60
2023-02-02T05:37:25.023Z,7.60
2023-02-02T05:39:53.683Z,7.50
2023-02-02T05:42:20.587Z,7.60
2023-02-02T05:44:47.391Z,7.60
2023-02-02T05:47:14.227Z,7.60
2023-02-02T05:49:41.024Z,7.60
2023-02-02T05:52:09.271Z,7.60
2023-02-02T05:54:36.040Z,7.60
2023-02-02T05:57:03.175Z,7.60
2023-02-02T05:59:29.974Z,7.60
2023-02-02T06:01:56.785Z,7.60
2023-02-02T06:04:23.627Z,7.60
2023-02-02T06:06:50.640Z,7.60
2023-02-02T06:09:17.488Z,7.70
2023-02-02T06:11:45.211Z,7.60
2023-02-02T06:14:12.640Z,7.70
2023-02-02T06:16:39.622Z,7.70
2023-02-02T06:19:06.546Z,7.70
2023-02-02T06:21:33.521Z,7.70
2023-02-02T06:24:00.421Z,7.70
2023-02-02T06:26:27.300Z,7.70
2023-02-02T06:28:55.355Z,7.70
2023-02-02T06:31:24.566Z,7.70
2023-02-02T06:33:56.717Z,7.70
2023-02-02T06:36:24.677Z,7.70
2023-02-02T06:38:53.007Z,7.70
2023-02-02T06:41:23.196Z,7.70
2023-02-02T06:43:50.396Z,7.70
2023-02-02T06:46:17.528Z,7.70
2023-02-02T06:48:44.405Z,7.70
2023-02-02T06:51:11.179Z,7.70
2023-02-02T06:53:38.077Z,7.70
2023-02-02T06:56:07.139Z,7.70
2023-02-02T06:58:34.569Z,7.70
2023-02-02T07:01:12.667Z,7.70
2023-02-02T07:03:39.936Z,7.70
2023-02-02T07:06:19.814Z,7.70
2023-02-02T07:08:49.482Z,7.70
2023-02-02T07:11:29.782Z,7.70
2023-02-02T07:13:56.625Z,7.70
2023-02-02T07:16:23.506Z,7.70
2023-02-02T07:18:50.517Z,7.70
2023-02-02T07:21:22.761Z,7.70
2023-02-02T07:23:50.064Z,7.70
2023-02-02T07:26:18.997Z,7.70
2023-02-02T07:28:46.487Z,7.70
2023-02-02T07:31:19.583Z,7.70
2023-02-02T07:33:49.272Z,7.70
2023-02-02T07:36:18.948Z,7.70
2023-02-02T07:38:48.286Z,7.70
2023-02-02T07:41:16.029Z,7.70
2023-02-02T07:43:43.174Z,7.70
2023-02-02T07:46:10.656Z,7.70
2023-02-02T07:48:37.673Z,7.70
2023-02-02T07:51:07.197Z,7.70
2023-02-02T07:53:34.404Z,7.70
2023-02-02T07:56:15.437Z,7.70
2023-02-02T07:58:43.250Z,7.70
2023-02-02T08:01:11.715Z,7.70
2023-02-02T08:03:38.973Z,7.70
2023-02-02T08:06:26.515Z,7.70
2023-02-02T08:08:53.621Z,7.70
2023-02-02T08:11:21.887Z,7.70
2023-02-02T08:13:50.544Z,7.80
2023-02-02T08:16:17.696Z,7.80
2023-02-02T08:18:47.435Z,7.80
2023-02-02T08:21:14.902Z,7.80
2023-02-02T08:23:42.653Z,7.80
2023-02-02T08:26:35.773Z,7.80
2023-02-02T08:29:07.109Z,7.80
2023-02-02T08:31:41.683Z,7.80
2023-02-02T08:34:09.016Z,7.80
2023-02-02T08:36:35.969Z,7.70
2023-02-02T08:39:05.943Z,7.70
2023-02-02T08:41:33.057Z,7.60
2023-02-02T08:44:00.005Z,7.60
2023-02-02T08:46:26.929Z,7.60
2023-02-02T08:48:53.742Z,7.60
2023-02-02T08:51:20.666Z,7.70
2023-02-02T08:53:47.943Z,7.60
2023-02-02T08:56:20.694Z,7.70
2023-02-02T08:58:50.017Z,7.70
2023-02-02T09:01:20.044Z,7.70
2023-02-02T09:03:47.565Z,7.70
2023-02-02T09:06:16.690Z,7.80
2023-02-02T09:08:43.928Z,7.80
2023-02-02T09:11:15.218Z,7.80
2023-02-02T09:13:43.240Z,7.80
2023-02-02T09:16:11.528Z,7.80
2023-02-02T09:18:39.460Z,7.80
2023-02-02T09:21:08.534Z,7.80
2023-02-02T09:23:37.760Z,7.90
2023-02-02T09:26:16.660Z,7.80
2023-02-02T09:28:46.724Z,7.80
2023-02-02T09:31:14.093Z,7.90
2023-02-02T09:33:41.960Z,7.90
2023-02-02T09:36:38.478Z,7.90
2023-02-02T09:39:06.091Z,8.00
2023-02-02T09:41:39.386Z,8.00
2023-02-02T09:44:21.318Z,8.00
2023-02-02T09:47:08.375Z,8.00
2023-02-02T09:49:46.949Z,8.10
2023-02-02T09:52:19.074Z,8.10
2023-02-02T09:54:47.716Z,8.10
2023-02-02T09:57:20.527Z,8.10
2023-02-02T09:59:50.372Z,8.10
2023-02-02T10:02:27.864Z,8.10
2023-02-02T10:04:56.775Z,8.20
2023-02-02T10:07:37.632Z,8.20
2023-02-02T10:10:13.203Z,8.30
2023-02-02T10:13:06.046Z,8.30
2023-02-02T10:15:56.682Z,8.40
2023-02-02T10:18:40.317Z,8.50
2023-02-02T10:21:33.379Z,8.50
2023-02-02T10:24:03.060Z,8.60
2023-02-02T10:26:42.574Z,8.60
2023-02-02T10:29:15.397Z,8.70
2023-02-02T10:31:44.116Z,8.70
2023-02-02T10:34:24.188Z,8.70
2023-02-02T10:37:16.719Z,8.80
2023-02-02T10:40:02.477Z,8.80
2023-02-02T10:43:19.263Z,8.90
2023-02-02T10:45:48.890Z,9.00
2023-02-02T10:48:19.097Z,8.90
2023-02-02T10:50:49.858Z,9.00
2023-02-02T10:53:19.843Z,9.10
2023-02-02T10:56:18.507Z,9.10
2023-02-02T10:59:10.611Z,9.10
2023-02-02T11:01:37.562Z,9.10
2023-02-02T11:04:23.674Z,9.00
2023-02-02T11:06:50.539Z,9.00
2023-02-02T11:09:26.250Z,8.90
2023-02-02T11:12:15.930Z,9.00
2023-02-02T11:14:58.183Z,9.00
2023-02-02T11:17:26.201Z,9.10
2023-02-02T11:19:55.767Z,9.10
2023-02-02T11:22:38.473Z,9.20
2023-02-02T11:25:27.508Z,9.30
2023-02-02T11:27:54.441Z,9.40
2023-02-02T11:30:27.465Z,9.50
2023-02-02T11:32:55.914Z,9.60
2023-02-02T11:35:24.725Z,9.70
2023-02-02T11:38:08.795Z,9.70
2023-02-02T11:41:03.861Z,9.70
2023-02-02T11:43:36.390Z,9.70
2023-02-02T11:46:14.044Z,9.70
2023-02-02T11:48:49.092Z,9.70
2023-02-02T11:51:23.264Z,9.80
2023-02-02T11:53:50.774Z,9.80
2023-02-02T11:56:25.131Z,9.80
2023-02-02T11:58:59.094Z,9.90
2023-02-02T12:01:27.464Z,9.90
2023-02-02T12:03:56.910Z,10.00
2023-02-02T12:06:27.194Z,10.00
2023-02-02T12:08:57.511Z,10.00
2023-02-02T12:11:52.880Z,10.10
2023-02-02T12:14:40.978Z,10.10
2023-02-02T12:17:19.529Z,10.10
2023-02-02T12:20:00.961Z,10.00
2023-02-02T12:22:55.192Z,10.10
2023-02-02T12:25:40.738Z,10.10
2023-02-02T12:28:33.742Z,10.20
2023-02-02T12:31:11.647Z,10.20
2023-02-02T12:34:11.771Z,10.30
2023-02-02T12:36:50.033Z,10.30
2023-02-02T12:39:32.622Z,10.40
2023-02-02T12:42:05.937Z,10.60
2023-02-02T12:44:39.308Z,10.70
2023-02-02T12:47:15.218Z,10.70
2023-02-02T12:50:09.549Z,10.70
2023-02-02T12:53:12.239Z,10.60
2023-02-02T12:55:44.949Z,10.60
2023-02-02T12:58:23.844Z,10.50
2023-02-02T13:00:56.822Z,10.50
2023-02-02T13:03:39.096Z,10.50
2023-02-02T13:06:11.720Z,10.50
2023-02-02T13:09:07.698Z,10.40
2023-02-02T13:11:34.506Z,10.50
2023-02-02T13:14:19.934Z,10.50
2023-02-02T13:16:49.831Z,10.50
2023-02-02T13:19:32.189Z,10.60
2023-02-02T13:22:01.023Z,10.60
2023-02-02T13:24:33.340Z,10.60
2023-02-02T13:27:02.293Z,10.70
2023-02-02T13:29:48.151Z,10.70
2023-02-02T13:32:17.660Z,10.70
2023-02-02T13:34:52.467Z,10.70
2023-02-02T13:37:28.236Z,10.70
2023-02-02T13:39:59.819Z,10.60
2023-02-02T13:42:36.531Z,10.60
2023-02-02T13:45:39.251Z,10.60
2023-02-02T13:48:16.602Z,10.50
2023-02-02T13:51:11.567Z,10.50
2023-02-02T13:53:49.156Z,10.50
2023-02-02T13:56:37.959Z,10.50
2023-02-02T13:59:31.852Z,10.50
2023-02-02T14:01:59.072Z,10.50
2023-02-02T14:04:28.121Z,10.40
2023-02-02T14:06:59.518Z,10.40
2023-02-02T14:09:28.766Z,10.40
2023-02-02T14:11:58.815Z,10.30
2023-02-02T14:14:35.563Z,10.40
2023-02-02T14:17:28.729Z,10.30
2023-02-02T14:19:57.519Z,10.40
2023-02-02T14:22:59.907Z,10.40
2023-02-02T14:25:29.350Z,10.40
2023-02-02T14:28:01.359Z,10.40
2023-02-02T14:30:32.722Z,10.40
2023-02-02T14:33:24.035Z,10.40
2023-02-02T14:35:52.879Z,10.30
2023-02-02T14:38:37.973Z,10.40
2023-02-02T14:41:36.061Z,10.40
2023-02-02T14:44:04.850Z,10.40
2023-02-02T14:46:36.704Z,10.30
2023-02-02T14:49:03.445Z,10.40
2023-02-02T14:51:33.326Z,10.40
2023-02-02T14:54:02.991Z,10.40
2023-02-02T14:56:49.860Z,10.30
2023-02-02T14:59:20.465Z,10.40
2023-02-02T15:01:59.551Z,10.30
2023-02-02T15:04:27.646Z,10.30
2023-02-02T15:06:55.635Z,10.40
2023-02-02T15:09:41.466Z,10.30
2023-02-02T15:12:09.035Z,10.30
2023-02-02T15:14:35.940Z,10.40
2023-02-02T15:17:12.607Z,10.30
2023-02-02T15:19:45.531Z,10.40
2023-02-02T15:22:27.573Z,10.30
2023-02-02T15:24:54.870Z,10.30
2023-02-02T15:27:22.840Z,10.30
2023-02-02T15:29:53.333Z,10.30
2023-02-02T15:32:23.152Z,10.30
2023-02-02T15:34:55.304Z,10.30
2023-02-02T15:37:26.158Z,10.20
2023-02-02T15:39:56.291Z,10.10
2023-02-02T15:42:49.945Z,10.20
2023-02-02T15:45:38.078Z,10.20
2023-02-02T15:48:15.178Z,10.20
2023-02-02T15:50:46.440Z,10.20
2023-02-02T15:53:22.330Z,10.20
2023-02-02T15:55:49.797Z,10.20
2023-02-02T15:58:34.143Z,10.20
2023-02-02T16:01:16.178Z,10.20
2023-02-02T16:04:12.917Z,10.20
2023-02-02T16:06:40.108Z,10.10
2023-02-02T16:09:07.501Z,10.10
2023-02-02T16:11:34.451Z,10.00
2023-02-02T16:14:06.094Z,10.00
2023-02-02T16:16:35.471Z,10.00
2023-02-02T16:19:13.713Z,10.00
2023-02-02T16:22:04.606Z,10.00
2023-02-02T16:24:39.644Z,10.00
2023-02-02T16:27:08.260Z,10.00
2023-02-02T16:29:35.460Z,9.90
2023-02-02T16:32:02.622Z,9.90
2023-02-02T16:34:41.969Z,9.90
2023-02-02T16:37:15.784Z,9.80
2023-02-02T16:39:42.732Z,9.80
2023-02-02T16:42:29.323Z,9.80
2023-02-02T16:44:57.657Z,9.80
2023-02-02T16:47:27.852Z,9.80
2023-02-02T16:50:18.026Z,9.80
2023-02-02T16:52:59.633Z,9.70
2023-02-02T16:55:43.670Z,9.70
2023-02-02T16:58:19.198Z,9.70
2023-02-02T17:01:02.165Z,9.70
2023-02-02T17:03:34.892Z,9.70
2023-02-02T17:06:02.411Z,9.70
2023-02-02T17:08:36.844Z,9.80
2023-02-02T17:11:06.709Z,9.70
2023-02-02T17:13:34.792Z,9.70
2023-02-02T17:16:01.817Z,9.80
2023-02-02T17:18:28.828Z,9.70
2023-02-02T17:21:04.435Z,9.70
2023-02-02T17:23:32.284Z,9.70
2023-02-02T17:25:59.381Z,9.60
2023-02-02T17:28:26.906Z,9.70
2023-02-02T17:31:06.531Z,9.70
2023-02-02T17:33:35.504Z,9.70
2023-02-02T17:36:02.639Z,9.70
2023-02-02T17:38:29.523Z,9.60
2023-02-02T17:41:01.300Z,9.60
2023-02-02T17:43:33.637Z,9.60
2023-02-02T17:46:00.642Z,9.60
2023-02-02T17:48:30.454Z,9.60
2023-02-02T17:50:57.281Z,9.60
2023-02-02T17:53:24.231Z,9.50
2023-02-02T17:55:52.064Z,9.50
2023-02-02T17:58:19.616Z,9.50
2023-02-02T18:00:47.935Z,9.50
2023-02-02T18:03:22.799Z,9.40
2023-02-02T18:05:50.092Z,9.40
2023-02-02T18:08:17.103Z,9.30
2023-02-02T18:10:44.080Z,9.30
2023-02-02T18:13:19.385Z,9.30
2023-02-02T18:15:47.290Z,9.30
2023-02-02T18:18:14.454Z,9.20
2023-02-02T18:20:46.567Z,9.20
2023-02-02T18:23:14.125Z,9.10
2023-02-02T18:25:41.360Z,9.10
2023-02-02T18:28:09.587Z,9.20
2023-02-02T18:30:40.235Z,9.20
2023-02-02T18:33:09.292Z,9.20
2023-02-02T18:35:40.888Z,9.10
2023-02-02T18:38:08.325Z,9.10
2023-02-02T18:40:35.211Z,9.10
2023-02-02T18:43:02.044Z,9.20
2023-02-02T18:45:28.911Z,9.10
2023-02-02T18:47:55.727Z,9.10
2023-02-02T18:50:24.029Z,9.10
2023-02-02T18:52:50.996Z,9.10
2023-02-02T18:55:17.798Z,9.20
2023-02-02T18:57:44.652Z,9.10
2023-02-02T19:00:12.114Z,9.10
2023-02-02T19:02:38.931Z,9.10
2023-02-02T19:05:25.124Z,9.00
2023-02-02T19:07:54.971Z,9.10
2023-02-02T19:10:23.334Z,9.00
2023-02-02T19:13:02.191Z,9.00
2023-02-02T19:15:29.273Z,9.00
2023-02-02T19:17:56.168Z,9.00
2023-02-02T19:20:30.415Z,9.00
2023-02-02T19:23:06.814Z,9.00
2023-02-02T19:25:33.688Z,9.00
2023-02-02T19:28:05.339Z,9.00
2023-02-02T19:30:32.854Z,9.00
2023-02-02T19:32:59.700Z,9.00
2023-02-02T19:35:27.033Z,9.00
2023-02-02T19:37:59.870Z,9.00
2023-02-02T19:40:27.161Z,9.00
2023-02-02T19:43:03.485Z,9.00
2023-02-02T19:45:33.046Z,9.00
2023-02-02T19:48:01.778Z,8.90
2023-02-02T19:50:33.779Z,8.90
2023-02-02T19:53:02.394Z,8.90
2023-02-02T19:55:35.741Z,8.90
2023-02-02T19:58:14.107Z,8.90
2023-02-02T20:00:41.545Z,8.90
2023-02-02T20:03:18.029Z,8.90
2023-02-02T20:05:49.857Z,8.90
2023-02-02T20:08:41.359Z,8.90
2023-02-02T20:11:32.302Z,8.90
2023-02-02T20:14:00.201Z,8.90
2023-02-02T20:16:36.801Z,8.90
2023-02-02T20:19:03.860Z,8.90
2023-02-02T20:21:37.201Z,8.90
2023-02-02T20:24:11.254Z,8.90
2023-02-02T20:26:38.499Z,8.90
2023-02-02T20:29:19.013Z,8.90
2023-02-02T20:31:47.766Z,8.90
2023-02-02T20:34:24.344Z,8.90
2023-02-02T20:36:54.355Z,8.90
2023-02-02T20:39:37.058Z,8.90
2023-02-02T20:42:04.459Z,8.90
2023-02-02T20:44:32.703Z,8.90
2023-02-02T20:47:00.406Z,8.90
2023-02-02T20:49:28.894Z,8.90
2023-02-02T20:51:56.623Z,8.90
2023-02-02T20:54:24.812Z,8.90
2023-02-02T20:56:52.276Z,8.90
2023-02-02T20:59:22.346Z,8.90
2023-02-02T21:01:53.052Z,8.90
2023-02-02T21:04:20.440Z,8.80
2023-02-02T21:06:48.850Z,8.80
2023-02-02T21:09:16.601Z,8.90
2023-02-02T21:11:43.711Z,8.90
2023-02-02T21:14:10.700Z,8.90
2023-02-02T21:16:37.710Z,8.80
2023-02-02T21:19:04.583Z,8.80
2023-02-02T21:21:31.402Z,8.90
2023-02-02T21:23:58.280Z,8.80
2023-02-02T21:26:27.883Z,8.80
2023-02-02T21:28:54.686Z,8.90
2023-02-02T21:31:21.643Z,8.80
2023-02-02T21:33:50.590Z,8.90
2023-02-02T21:36:28.664Z,8.90
2023-02-02T21:39:23.007Z,8.80
2023-02-02T21:41:50.790Z,8.90
2023-02-02T21:44:20.525Z,8.80
2023-02-02T21:46:48.690Z,8.90
2023-02-02T21:49:26.676Z,8.80
2023-02-02T21:51:59.828Z,8.80
2023-02-02T21:54:28.999Z,8.80
2023-02-02T21:56:56.217Z,8.80
2023-02-02T21:59:25.037Z,8.80
2023-02-02T22:01:52.577Z,8.80
2023-02-02T22:04:25.097Z,8.80
2023-02-02T22:06:54.058Z,8.80
2023-02-02T22:09:23.663Z,8.80
2023-02-02T22:12:02.006Z,8.80
2023-02-02T22:14:36.552Z,8.70
2023-02-02T22:17:21.480Z,8.70
2023-02-02T22:19:49.284Z,8.80
2023-02-02T22:22:23.974Z,8.80
2023-02-02T22:25:16.965Z,8.70
2023-02-02T22:27:50.860Z,8.80
2023-02-02T22:30:21.129Z,8.80
2023-02-02T22:32:48.179Z,8.70
2023-02-02T22:35:14.992Z,8.80
2023-02-02T22:37:41.769Z,8.70
2023-02-02T22:40:09.680Z,8.70
2023-02-02T22:42:36.629Z,8.80
2023-02-02T22:45:06.849Z,8.70
2023-02-02T22:47:33.689Z,8.70
2023-02-02T22:50:00.418Z,8.70
2023-02-02T22:52:27.232Z,8.70
2023-02-02T22:54:54.003Z,8.70
2023-02-02T22:57:20.782Z,8.70
2023-02-02T22:59:47.514Z,8.70
2023-02-02T23:02:14.385Z,8.80
2023-02-02T23:04:41.348Z,8.70
2023-02-02T23:07:08.239Z,8.70
2023-02-02T23:09:35.271Z,8.70
2023-02-02T23:12:02.243Z,8.80
2023-02-02T23:14:29.018Z,8.80
2023-02-02T23:16:55.814Z,8.70
2023-02-02T23:19:22.568Z,8.70
2023-02-02T23:21:49.297Z,8.70
2023-02-02T23:24:17.312Z,8.70
2023-02-02T23:26:44.125Z,8.70
2023-02-02T23:29:11.052Z,8.70
2023-02-02T23:31:37.842Z,8.70
2023-02-02T23:34:04.639Z,8.70
2023-02-02T23:36:31.372Z,8.70
2023-02-02T23:38:58.199Z,8.70
2023-02-02T23:41:24.955Z,8.80
2023-02-02T23:43:52.030Z,8.70
2023-02-02T23:46:18.926Z,8.70
2023-02-02T23:48:45.956Z,8.70
2023-02-02T23:51:13.235Z,8.70
2023-02-02T23:53:40.835Z,8.70
2023-02-02T23:56:07.797Z,8.70
2023-02-02T23:58:34.571Z,8.80
